Time;durP1;ratioP1;P1;durP2;ratioP2;P2;SDS_P1;SDS_P2;PMS_P1;PMS_P2;Temp;Humidity;BMP_temperature;BMP_pressure;BME280_temperature;BME280_humidity;BME280_pressure;Samples;Min_cycle;Max_cycle;Signal;HPM_P1;HPM_P2
2022/03/13 00:08:58;;;;;;;19.83;10.00;;;2.50;33.20;;;;;;4969470;28;20232;-88
2022/03/13 00:11:31;;;;;;;15.93;9.53;;;2.40;33.60;;;;;;4983240;28;20223;-88
2022/03/13 00:14:00;;;;;;;18.77;10.10;;;2.40;33.40;;;;;;4974669;28;20264;-89
2022/03/13 00:16:54;;;;;;;17.10;9.77;;;2.30;33.40;;;;;;4965192;28;20205;-89
2022/03/13 00:22:59;;;;;;;16.10;9.97;;;2.30;34.20;;;;;;4992787;28;20284;-88
2022/03/13 00:25:27;;;;;;;19.00;9.70;;;2.20;35.10;;;;;;4974625;28;20718;-88
2022/03/13 00:28:12;;;;;;;15.63;9.70;;;2.20;36.80;;;;;;4975379;28;20210;-88
2022/03/13 00:30:49;;;;;;;18.97;9.70;;;2.10;37.00;;;;;;4972997;28;20389;-88
2022/03/13 00:40:16;;;;;;;13.83;9.17;;;1.90;37.00;;;;;;4935282;28;20234;-88
2022/03/13 00:42:50;;;;;;;18.20;10.13;;;1.80;37.40;;;;;;4930233;29;20225;-90
2022/03/13 00:45:45;;;;;;;15.57;9.03;;;1.90;38.20;;;;;;4969092;28;20217;-88
2022/03/13 02:26:05;;;;;;;17.20;9.60;;;1.50;41.50;;;;;;5550203;23;20212;-89
2022/03/13 02:28:34;;;;;;;12.77;9.03;;;1.60;41.50;;;;;;4983277;28;20211;-88
2022/03/13 02:34:11;;;;;;;15.83;8.73;;;1.60;43.40;;;;;;4973500;28;20306;-88
2022/03/13 03:18:16;;;;;;;11.97;7.73;;;1.30;41.30;;;;;;4907950;29;20220;-88
2022/03/13 03:20:45;;;;;;;11.87;6.87;;;1.30;43.90;;;;;;4906149;29;20240;-88
2022/03/13 03:23:12;;;;;;;15.77;8.47;;;1.20;41.20;;;;;;4948556;28;20289;-88
2022/03/13 03:25:40;;;;;;;11.27;7.50;;;1.10;42.40;;;;;;4968146;28;20204;-88
2022/03/13 03:28:10;;;;;;;13.57;7.43;;;1.10;43.00;;;;;;4984861;28;20286;-88
2022/03/13 03:30:39;;;;;;;11.90;7.90;;;1.20;42.30;;;;;;4984244;28;20233;-88
2022/03/13 03:33:34;;;;;;;14.30;7.93;;;1.20;43.00;;;;;;4925421;29;20220;-89
2022/03/13 03:39:28;;;;;;;10.97;6.83;;;1.00;44.90;;;;;;5001333;28;20247;-89
2022/03/13 03:42:17;;;;;;;11.60;7.10;;;1.00;43.70;;;;;;4971405;28;20196;-88
2022/03/13 04:33:17;;;;;;;10.83;6.60;;;1.10;43.00;;;;;;4949093;28;20236;-88
2022/03/13 04:36:39;;;;;;;9.87;6.53;;;1.00;44.20;;;;;;4939507;28;20222;-90
2022/03/13 04:42:25;;;;;;;10.50;7.40;;;0.90;45.80;;;;;;5007556;28;20197;-88
2022/03/13 04:59:08;;;;;;;9.30;6.53;;;0.80;45.40;;;;;;4957589;28;20691;-88
2022/03/13 05:04:32;;;;;;;10.67;6.93;;;0.80;46.30;;;;;;4975256;28;20225;-88
2022/03/13 05:07:12;;;;;;;11.73;6.30;;;0.80;45.70;;;;;;5000120;28;20243;-89
2022/03/13 05:09:40;;;;;;;8.73;6.10;;;0.70;46.90;;;;;;5005949;28;20224;-89
2022/03/13 05:12:26;;;;;;;11.97;7.23;;;0.80;46.20;;;;;;4982358;28;20229;-89
2022/03/13 05:15:05;;;;;;;12.60;6.93;;;0.70;46.60;;;;;;4976370;28;20217;-90
2022/03/13 05:28:12;;;;;;;11.13;6.83;;;0.60;47.60;;;;;;4930022;29;20218;-89
2022/03/13 05:37:15;;;;;;;9.93;6.70;;;0.70;47.80;;;;;;5115938;27;20595;-88
2022/03/13 05:39:42;;;;;;;11.57;7.17;;;0.70;48.30;;;;;;5081864;28;20230;-89
2022/03/13 05:42:09;;;;;;;10.33;6.80;;;0.60;49.00;;;;;;5044432;28;20194;-90
2022/03/13 05:44:37;;;;;;;10.77;7.30;;;0.60;48.50;;;;;;5056501;28;20229;-88
2022/03/13 05:47:07;;;;;;;13.00;7.37;;;0.60;47.70;;;;;;5079753;28;20197;-88
2022/03/13 05:49:34;;;;;;;10.17;6.70;;;0.60;47.40;;;;;;5060419;28;20232;-89
2022/03/13 05:52:01;;;;;;;12.67;7.97;;;0.70;47.80;;;;;;5054920;28;20236;-90
2022/03/13 05:54:30;;;;;;;10.90;7.20;;;0.60;47.60;;;;;;5054710;28;20222;-89
2022/03/13 05:57:00;;;;;;;10.70;6.70;;;0.60;47.80;;;;;;5048526;28;20210;-89
2022/03/13 05:59:27;;;;;;;10.30;7.40;;;0.70;47.70;;;;;;5050425;28;20236;-88
2022/03/13 06:01:55;;;;;;;10.60;7.53;;;0.70;48.30;;;;;;5054737;28;20527;-89
2022/03/13 06:04:24;;;;;;;12.37;6.93;;;0.70;50.00;;;;;;5050578;28;20230;-88
2022/03/13 06:06:52;;;;;;;11.13;6.77;;;0.70;49.50;;;;;;5053259;28;20222;-88
2022/03/13 06:09:19;;;;;;;10.37;6.50;;;0.80;49.40;;;;;;5050931;28;20219;-91
2022/03/13 06:11:47;;;;;;;10.70;6.73;;;0.80;50.10;;;;;;5049702;28;20212;-88
2022/03/13 06:14:14;;;;;;;11.20;7.33;;;0.90;49.00;;;;;;5079426;28;21012;-88
2022/03/13 06:16:41;;;;;;;11.83;7.67;;;0.90;49.20;;;;;;5072366;28;20564;-89
2022/03/13 06:19:09;;;;;;;12.10;7.10;;;0.80;49.20;;;;;;5057199;28;20213;-89
2022/03/13 06:21:36;;;;;;;12.00;7.37;;;0.80;49.90;;;;;;5056616;28;20191;-88
2022/03/13 06:24:03;;;;;;;10.93;7.37;;;0.80;50.00;;;;;;5051597;28;20233;-88
2022/03/13 06:26:31;;;;;;;10.47;7.43;;;0.90;51.10;;;;;;5064556;28;20717;-88
2022/03/13 06:32:00;;;;;;;11.33;7.00;;;1.00;51.80;;;;;;5055212;28;20212;-88
2022/03/13 06:34:48;;;;;;;11.53;7.57;;;1.10;50.80;;;;;;5054494;28;20290;-88
2022/03/13 06:37:15;;;;;;;12.20;7.80;;;1.20;49.80;;;;;;5057104;28;20210;-88
2022/03/13 06:39:42;;;;;;;12.57;8.03;;;1.40;48.60;;;;;;5057146;28;20215;-88
2022/03/13 06:42:10;;;;;;;13.10;7.90;;;1.50;49.40;;;;;;5058442;28;20286;-88
2022/03/13 06:48:31;;;;;;;9.87;7.57;;;1.70;48.70;;;;;;5041019;28;20181;-88
2022/03/13 06:50:59;;;;;;;11.93;7.67;;;1.70;48.70;;;;;;5040090;28;20225;-88
2022/03/13 06:53:28;;;;;;;11.83;7.77;;;1.80;48.60;;;;;;5043641;28;20201;-87
2022/03/13 06:55:56;;;;;;;11.23;7.97;;;1.80;49.60;;;;;;5042461;28;20240;-88
2022/03/13 06:58:23;;;;;;;11.90;8.20;;;1.80;49.70;;;;;;5057668;28;20217;-90
2022/03/13 07:00:51;;;;;;;10.93;8.33;;;2.10;49.20;;;;;;5037842;28;20214;-90
2022/03/13 07:03:18;;;;;;;12.90;7.83;;;3.20;45.50;;;;;;5041604;28;20199;-89
2022/03/13 07:05:46;;;;;;;14.07;8.60;;;4.10;37.90;;;;;;5040767;28;20241;-89
2022/03/13 07:08:16;;;;;;;12.03;8.40;;;4.60;34.00;;;;;;5044562;28;20199;-89
2022/03/13 07:10:43;;;;;;;13.67;7.70;;;4.60;33.80;;;;;;5034692;28;20222;-86
2022/03/13 07:13:15;;;;;;;12.47;8.40;;;4.50;34.70;;;;;;5046225;28;20281;-88
2022/03/13 07:15:42;;;;;;;12.00;8.63;;;4.00;33.70;;;;;;5058321;28;20218;-91
2022/03/13 07:18:09;;;;;;;14.83;8.77;;;4.30;33.00;;;;;;5041508;28;20197;-86
2022/03/13 07:20:36;;;;;;;16.33;9.50;;;4.40;34.10;;;;;;5045653;28;20840;-91
2022/03/13 07:23:04;;;;;;;13.00;8.33;;;4.40;34.50;;;;;;5037446;28;20295;-86
2022/03/13 07:25:36;;;;;;;10.90;8.20;;;4.40;35.00;;;;;;5039685;28;20272;-87
2022/03/13 07:28:04;;;;;;;11.30;8.47;;;4.40;34.90;;;;;;5038404;28;20256;-87
2022/03/13 07:30:32;;;;;;;13.13;8.40;;;4.60;34.60;;;;;;5047574;28;20209;-87
2022/03/13 07:32:59;;;;;;;14.30;8.93;;;4.80;33.90;;;;;;5040132;28;20194;-87
2022/03/13 07:35:27;;;;;;;16.77;9.30;;;5.10;33.50;;;;;;5039967;28;20230;-88
2022/03/13 07:37:54;;;;;;;12.13;9.13;;;4.90;30.60;;;;;;5032518;28;20204;-89
2022/03/13 07:40:21;;;;;;;13.63;9.80;;;4.80;31.80;;;;;;5071785;28;20837;-87
2022/03/13 07:42:50;;;;;;;13.87;8.67;;;5.00;30.90;;;;;;5040859;28;20205;-87
2022/03/13 07:45:17;;;;;;;11.63;8.87;;;5.10;32.50;;;;;;5036744;28;20218;-87
2022/03/13 07:47:45;;;;;;;10.23;8.30;;;5.30;30.60;;;;;;5037991;28;20205;-85
2022/03/13 07:50:18;;;;;;;13.87;8.53;;;5.70;32.20;;;;;;5032087;28;20252;-87
2022/03/13 07:52:45;;;;;;;12.07;8.60;;;5.90;30.20;;;;;;5035450;28;20198;-87
2022/03/13 07:55:14;;;;;;;13.83;9.07;;;6.00;31.00;;;;;;5042810;28;20195;-87
2022/03/13 07:57:43;;;;;;;11.47;8.57;;;6.20;29.50;;;;;;5043510;28;20206;-88
2022/03/13 08:00:17;;;;;;;13.23;9.57;;;6.30;29.60;;;;;;5037122;28;20606;-88
2022/03/13 08:02:47;;;;;;;12.27;8.50;;;6.40;28.70;;;;;;5038181;28;20190;-87
2022/03/13 08:05:16;;;;;;;12.00;8.87;;;6.70;28.40;;;;;;5044593;28;20218;-89
2022/03/13 08:10:29;;;;;;;14.30;9.37;;;7.10;27.10;;;;;;5039011;28;20225;-89
2022/03/13 08:16:43;;;;;;;14.82;9.15;;;8.30;23.80;;;;;;5118293;27;20606;-88
2022/03/13 08:19:13;;;;;;;14.50;9.52;;;8.40;23.80;;;;;;5140138;27;20230;-90
2022/03/13 08:21:41;;;;;;;14.05;9.77;;;8.20;23.70;;;;;;5144805;27;20731;-89
2022/03/13 08:24:23;;;;;;;11.93;9.35;;;8.60;24.00;;;;;;5121930;27;20224;-88
2022/03/13 08:35:48;;;;;;;12.52;9.82;;;9.60;21.20;;;;;;5069241;28;20245;-89
2022/03/13 08:38:16;;;;;;;15.60;10.48;;;9.50;20.40;;;;;;5063208;28;20205;-88
2022/03/13 08:40:43;;;;;;;12.25;9.50;;;9.20;20.70;;;;;;5067734;28;20240;-86
2022/03/13 08:43:10;;;;;;;12.85;10.00;;;9.30;20.90;;;;;;5067989;28;20209;-87
2022/03/13 08:45:38;;;;;;;15.00;10.85;;;9.40;21.20;;;;;;5067912;28;20622;-86
2022/03/13 09:14:21;;;;;;;14.93;12.15;;;16.70;10.80;;;;;;5094852;28;20230;-90
2022/03/13 09:16:51;;;;;;;13.32;11.93;;;17.80;9.50;;;;;;5092392;28;20733;-89
2022/03/13 09:20:09;;;;;;;13.75;11.38;;;17.90;9.60;;;;;;5086574;28;20220;-90
2022/03/13 09:22:46;;;;;;;13.85;11.55;;;18.80;10.20;;;;;;5087758;28;20565;-89
2022/03/13 09:25:13;;;;;;;14.80;12.07;;;18.10;8.40;;;;;;5076844;28;20832;-85
2022/03/13 09:27:43;;;;;;;15.70;12.23;;;17.70;9.50;;;;;;5065429;28;20206;-84
2022/03/13 09:30:11;;;;;;;14.82;11.23;;;18.60;8.60;;;;;;5065121;28;20236;-90
2022/03/13 09:32:38;;;;;;;12.90;11.57;;;20.00;6.60;;;;;;5063649;28;20291;-86
2022/03/13 09:35:06;;;;;;;16.10;11.80;;;20.90;5.90;;;;;;5063531;28;20250;-91
2022/03/13 09:37:34;;;;;;;14.48;11.98;;;21.20;4.80;;;;;;5066799;28;20664;-87
2022/03/13 09:40:01;;;;;;;19.27;13.23;;;20.40;5.80;;;;;;5065217;28;20231;-89
2022/03/13 09:42:28;;;;;;;14.35;12.90;;;20.30;5.70;;;;;;5060217;28;20201;-86
2022/03/13 09:44:59;;;;;;;14.75;12.77;;;20.20;5.80;;;;;;5058114;28;20216;-91
2022/03/13 09:47:27;;;;;;;13.70;12.30;;;20.20;6.40;;;;;;5066069;28;20246;-88
2022/03/13 09:49:54;;;;;;;14.40;12.85;;;21.30;5.00;;;;;;5061486;28;20222;-88
2022/03/13 09:52:21;;;;;;;18.75;13.55;;;22.80;3.90;;;;;;5065591;28;20208;-88
2022/03/13 09:54:48;;;;;;;14.07;12.57;;;23.40;2.90;;;;;;5054029;28;20213;-89
2022/03/13 09:57:17;;;;;;;14.82;12.88;;;23.90;2.60;;;;;;5060941;28;20280;-87
2022/03/13 09:59:46;;;;;;;13.85;12.45;;;23.90;2.40;;;;;;5058642;28;20676;-89
2022/03/13 10:02:14;;;;;;;13.95;12.00;;;24.30;3.00;;;;;;5064450;28;20280;-89
2022/03/13 10:04:42;;;;;;;15.15;11.98;;;24.50;1.70;;;;;;5071322;28;20289;-88
2022/03/13 10:07:10;;;;;;;14.35;12.52;;;24.80;1.70;;;;;;5064379;28;20201;-88
2022/03/13 10:09:38;;;;;;;14.02;11.57;;;24.20;1.50;;;;;;5077475;28;20217;-90
2022/03/13 10:12:12;;;;;;;12.55;11.10;;;23.60;2.10;;;;;;5072146;28;20197;-90
2022/03/13 10:15:00;;;;;;;12.70;11.38;;;24.00;2.10;;;;;;5062622;28;20193;-90
2022/03/13 10:17:35;;;;;;;13.50;12.07;;;24.80;1.80;;;;;;5061962;28;20557;-91
2022/03/13 10:20:18;;;;;;;13.10;11.85;;;23.50;1.80;;;;;;5064143;28;20255;-89
2022/03/13 10:22:51;;;;;;;12.90;11.65;;;22.80;2.10;;;;;;5063360;28;20288;-89
2022/03/13 10:25:29;;;;;;;12.55;11.40;;;22.70;3.10;;;;;;5066630;28;20223;-91
2022/03/13 10:28:01;;;;;;;12.75;11.55;;;22.60;2.40;;;;;;5072742;28;20235;-87
2022/03/13 10:30:28;;;;;;;14.90;11.82;;;21.70;3.30;;;;;;5071669;28;20220;-85
2022/03/13 10:33:17;;;;;;;13.40;11.95;;;22.70;3.10;;;;;;5074834;28;20199;-91
2022/03/13 10:35:45;;;;;;;14.15;10.93;;;22.50;3.90;;;;;;5081598;28;20258;-88
2022/03/13 10:38:17;;;;;;;13.80;11.90;;;22.10;2.90;;;;;;5079733;28;20671;-88
2022/03/13 10:40:45;;;;;;;13.82;12.00;;;21.40;3.20;;;;;;5068728;28;20226;-88
2022/03/13 10:43:19;;;;;;;13.50;12.10;;;22.20;3.40;;;;;;5070682;28;20213;-89
2022/03/13 10:45:51;;;;;;;15.55;12.00;;;22.40;2.90;;;;;;5073272;28;20228;-88
2022/03/13 10:48:30;;;;;;;13.48;12.25;;;22.60;3.00;;;;;;5067736;28;20225;-88
2022/03/13 10:50:59;;;;;;;13.50;12.20;;;22.00;2.90;;;;;;5065228;28;20220;-89
2022/03/13 10:53:41;;;;;;;13.48;12.07;;;22.30;3.20;;;;;;5065871;28;20821;-89
2022/03/13 10:56:18;;;;;;;13.70;12.07;;;21.40;3.30;;;;;;5066365;28;20211;-88
2022/03/13 10:58:48;;;;;;;13.93;12.30;;;21.10;3.90;;;;;;5062668;28;20220;-89
2022/03/13 11:01:25;;;;;;;14.50;12.48;;;20.80;4.00;;;;;;5061796;28;20698;-88
2022/03/13 11:03:56;;;;;;;13.45;12.13;;;19.70;5.00;;;;;;5065141;28;20933;-88
2022/03/13 11:06:25;;;;;;;13.48;12.02;;;20.70;6.00;;;;;;5055624;28;20302;-88
2022/03/13 11:08:55;;;;;;;13.85;11.98;;;20.70;5.10;;;;;;5068286;28;20258;-88
2022/03/13 11:11:22;;;;;;;13.77;12.07;;;21.50;5.00;;;;;;5067256;28;20220;-89
2022/03/13 11:13:59;;;;;;;14.30;12.20;;;21.60;4.10;;;;;;5069903;28;20255;-90
2022/03/13 11:16:28;;;;;;;13.25;11.85;;;20.70;4.10;;;;;;5071313;28;20299;-90
2022/03/13 16:39:38;;;;;;;9.20;7.53;;;13.00;12.20;;;;;;5007041;28;20627;-89
2022/03/13 16:58:27;;;;;;;11.60;7.70;;;12.50;12.70;;;;;;5073440;23;20238;-92
2022/03/13 17:07:03;;;;;;;11.00;7.50;;;12.10;13.10;;;;;;5017134;28;20240;-92
2022/03/13 17:09:30;;;;;;;11.00;7.30;;;12.00;13.20;;;;;;4996861;28;20238;-93
2022/03/13 17:18:40;;;;;;;14.18;7.70;;;11.70;13.80;;;;;;4962583;28;20192;-92
2022/03/13 17:21:08;;;;;;;12.20;7.93;;;11.50;14.00;;;;;;4999733;28;20204;-92
2022/03/13 17:26:49;;;;;;;13.10;7.82;;;11.40;14.20;;;;;;4897712;29;20237;-92
2022/03/13 17:37:24;;;;;;;9.75;6.97;;;11.10;14.50;;;;;;4915545;29;20226;-93
2022/03/13 19:16:25;;;;;;;10.75;7.32;;;8.50;18.80;;;;;;4898625;29;20230;-93
2022/03/13 19:55:16;;;;;;;12.10;8.77;;;7.60;21.40;;;;;;4939125;28;20226;-91
2022/03/13 20:01:26;;;;;;;10.83;8.30;;;7.60;21.70;;;;;;4964077;29;20185;-92
2022/03/13 20:15:00;;;;;;;12.27;8.87;;;7.30;21.40;;;;;;4942634;28;20248;-92
2022/03/13 20:17:29;;;;;;;11.10;8.13;;;7.20;22.10;;;;;;5021581;28;20318;-91
2022/03/13 20:22:47;;;;;;;11.98;8.65;;;7.10;22.10;;;;;;4941851;29;20213;-91
2022/03/13 20:25:35;;;;;;;12.60;8.60;;;7.10;22.90;;;;;;4930436;29;20229;-91
2022/03/13 20:28:22;;;;;;;12.10;8.50;;;7.10;22.20;;;;;;4999931;28;20226;-91
2022/03/13 21:52:27;;;;;;;14.80;10.40;;;6.00;26.10;;;;;;5044466;28;20328;-91
2022/03/13 21:55:32;;;;;;;16.37;10.93;;;5.90;26.80;;;;;;5020618;28;20250;-92
2022/03/13 21:57:59;;;;;;;12.93;10.07;;;5.80;25.60;;;;;;5041260;28;20217;-92
2022/03/13 22:00:27;;;;;;;16.57;10.43;;;5.80;26.00;;;;;;5028616;28;20294;-92
2022/03/13 22:02:55;;;;;;;16.77;10.20;;;5.80;27.00;;;;;;5039837;28;20203;-91
2022/03/13 22:05:41;;;;;;;15.33;11.27;;;5.70;27.00;;;;;;4986165;28;20214;-92
2022/03/13 22:11:16;;;;;;;16.33;10.93;;;5.50;27.40;;;;;;5008444;28;20269;-91
2022/03/13 22:14:03;;;;;;;16.80;11.47;;;5.50;27.60;;;;;;5010832;28;20229;-91
2022/03/13 22:16:31;;;;;;;19.33;11.37;;;5.30;27.70;;;;;;5036138;28;20218;-91
2022/03/13 22:19:18;;;;;;;19.87;12.70;;;5.10;29.40;;;;;;5010873;28;20230;-90
2022/03/13 22:21:46;;;;;;;18.83;12.17;;;5.20;29.00;;;;;;5043330;28;20202;-90
2022/03/13 22:30:09;;;;;;;18.33;12.50;;;5.20;29.40;;;;;;5041298;28;20293;-90
2022/03/13 22:46:25;;;;;;;19.03;12.30;;;4.70;30.50;;;;;;4940753;29;20265;-92
